Time;durP1;ratioP1;P1;durP2;ratioP2;P2;SDS_P1;SDS_P2;PMS_P1;PMS_P2;Temp;Humidity;BMP_temperature;BMP_pressure;BME280_temperature;BME280_humidity;BME280_pressure;Samples;Min_cycle;Max_cycle;Signal;HPM_P1;HPM_P2
2022/05/31 00:02:00;;;;;;;9.67;6.23;;;;;;;5.66;78.01;98882.80;2291451;77;20917;-79
2022/05/31 00:05:00;;;;;;;10.60;7.50;;;;;;;5.63;78.07;98882.70;2291276;77;21253;-79
2022/05/31 00:08:00;;;;;;;12.53;7.77;;;;;;;5.61;78.47;98881.77;2291654;78;20914;-79
2022/05/31 00:11:02;;;;;;;10.53;7.67;;;;;;;5.66;78.77;98880.63;2291660;78;20953;-79
2022/05/31 00:14:01;;;;;;;119.13;13.43;;;;;;;5.68;78.22;98875.95;2291367;77;20878;-79
2022/05/31 00:17:02;;;;;;;10.77;7.23;;;;;;;5.62;78.23;98878.36;2291220;77;21021;-80
2022/05/31 00:20:03;;;;;;;8.70;7.17;;;;;;;5.59;78.37;98882.55;2292101;77;20984;-81
2022/05/31 00:23:03;;;;;;;48.70;9.13;;;;;;;5.59;78.70;98887.73;2292756;77;21316;-79
2022/05/31 00:26:03;;;;;;;8.07;6.50;;;;;;;5.59;78.69;98890.33;2292216;77;20938;-80
2022/05/31 00:29:04;;;;;;;8.57;6.77;;;;;;;5.59;78.64;98890.33;2292456;77;20926;-80
2022/05/31 00:32:04;;;;;;;17.40;6.60;;;;;;;5.59;78.86;98895.09;2292911;77;20898;-80
2022/05/31 00:35:05;;;;;;;25.30;8.03;;;;;;;5.61;78.87;98900.31;2292391;77;20930;-79
2022/05/31 00:38:05;;;;;;;21.77;8.27;;;;;;;5.58;78.70;98902.81;2292183;77;20918;-77
2022/05/31 00:41:23;;;;;;;37.70;8.70;;;;;;;5.66;78.67;98903.52;2291770;77;21337;-81
2022/05/31 00:44:06;;;;;;;23.70;8.23;;;;;;;5.66;78.67;98903.52;2291653;77;20945;-79
2022/05/31 00:47:06;;;;;;;25.27;8.90;;;;;;;5.64;78.54;98902.59;2292100;78;20902;-79
2022/05/31 00:50:07;;;;;;;9.97;7.20;;;;;;;5.60;78.71;98898.56;2291468;77;20981;-79
2022/05/31 00:53:07;;;;;;;7.67;6.67;;;;;;;5.55;78.58;98910.06;2291694;77;20890;-80
2022/05/31 00:56:07;;;;;;;14.07;6.73;;;;;;;5.49;78.77;98906.39;2291751;77;21049;-79
2022/05/31 00:59:08;;;;;;;11.27;7.33;;;;;;;5.44;78.85;98902.36;2291876;77;21239;-79
2022/05/31 01:02:09;;;;;;;9.97;6.77;;;;;;;5.41;78.99;98899.25;2291370;77;20933;-79
2022/05/31 01:05:09;;;;;;;8.77;6.33;;;;;;;5.38;78.95;98900.86;2291646;77;20911;-79
2022/05/31 01:08:10;;;;;;;10.40;6.33;;;;;;;5.31;78.91;98901.48;2291410;77;21270;-79
2022/05/31 01:11:10;;;;;;;8.17;7.03;;;;;;;5.24;78.99;98900.41;2291342;78;21294;-79
2022/05/31 01:14:11;;;;;;;8.87;6.20;;;;;;;5.19;79.03;98901.92;2291258;77;20922;-79
2022/05/31 01:17:10;;;;;;;12.77;6.03;;;;;;;5.18;79.14;98890.23;2291308;77;20914;-79
2022/05/31 01:20:11;;;;;;;8.87;6.00;;;;;;;5.16;79.20;98889.30;2291323;77;21341;-78
2022/05/31 01:23:11;;;;;;;9.60;6.63;;;;;;;5.15;79.24;98893.59;2291375;77;20997;-78
2022/05/31 01:26:11;;;;;;;18.50;6.63;;;;;;;5.12;79.13;98890.48;2291410;77;20989;-80
2022/05/31 01:29:12;;;;;;;10.13;6.53;;;;;;;5.09;79.14;98892.09;2291793;77;20984;-79
2022/05/31 01:32:12;;;;;;;48.93;8.67;;;;;;;5.02;78.99;98895.30;2291932;77;21028;-79
2022/05/31 01:35:13;;;;;;;10.23;6.43;;;;;;;4.94;78.93;98898.91;2302707;77;20992;-80
2022/05/31 01:38:13;;;;;;;11.53;5.87;;;;;;;4.93;79.21;98904.03;2305656;77;20936;-79
2022/05/31 01:41:13;;;;;;;20.27;6.93;;;;;;;4.90;78.74;98901.34;2306237;77;20940;-79
2022/05/31 01:44:14;;;;;;;7.53;6.13;;;;;;;4.82;78.72;98911.41;2305928;77;21319;-79
2022/05/31 01:47:14;;;;;;;8.13;6.03;;;;;;;4.77;79.08;98917.72;2305931;77;20874;-78
2022/05/31 01:50:15;;;;;;;9.00;6.00;;;;;;;4.72;78.75;98915.38;2305899;77;20978;-78
2022/05/31 01:53:15;;;;;;;8.00;6.07;;;;;;;4.69;78.81;98918.27;2306141;77;21233;-78
2022/05/31 01:56:15;;;;;;;8.83;6.23;;;;;;;4.67;78.60;98914.75;2305762;77;20996;-78
2022/05/31 01:59:16;;;;;;;6.77;5.63;;;;;;;4.61;78.63;98918.41;2306469;77;20910;-79
2022/05/31 02:02:16;;;;;;;7.70;5.47;;;;;;;4.54;78.74;98913.84;2305833;77;20980;-79
2022/05/31 02:05:17;;;;;;;9.47;6.00;;;;;;;4.53;78.86;98922.00;2306238;77;21296;-80
2022/05/31 02:08:17;;;;;;;11.87;9.17;;;;;;;4.53;78.60;98927.17;2306762;77;20930;-79
2022/05/31 02:11:17;;;;;;;6.97;6.10;;;;;;;4.45;78.63;98925.60;2306660;77;21020;-78
2022/05/31 02:14:18;;;;;;;50.87;9.23;;;;;;;4.51;79.13;98927.95;2306055;77;20945;-80
2022/05/31 02:17:18;;;;;;;9.67;5.83;;;;;;;4.51;79.74;98925.36;2306213;77;20944;-79
2022/05/31 02:20:19;;;;;;;13.37;6.37;;;;;;;4.50;79.01;98927.47;2306365;77;20970;-79
2022/05/31 02:23:19;;;;;;;9.40;6.07;;;;;;;4.47;78.86;98931.70;2306373;77;20878;-79
2022/05/31 02:26:19;;;;;;;7.43;6.53;;;;;;;4.44;78.78;98933.30;2302480;77;21004;-79
2022/05/31 02:29:20;;;;;;;6.77;6.03;;;;;;;4.42;78.92;98931.95;2305872;77;20980;-78
2022/05/31 02:32:20;;;;;;;6.80;5.57;;;;;;;4.43;78.81;98935.00;2305901;77;20957;-80
2022/05/31 02:35:20;;;;;;;10.90;6.77;;;;;;;4.41;78.84;98937.94;2250804;77;20944;-81
2022/05/31 02:38:21;;;;;;;20.83;8.27;;;;;;;4.40;79.07;98937.47;2229671;80;20928;-80
2022/05/31 02:41:21;;;;;;;56.87;8.43;;;;;;;4.39;79.34;98949.92;2229605;80;21387;-77
2022/05/31 02:44:22;;;;;;;54.40;9.97;;;;;;;4.40;79.40;98943.05;2229328;80;20920;-79
2022/05/31 02:47:22;;;;;;;64.50;9.47;;;;;;;4.46;79.60;98948.45;2229632;80;20970;-80
2022/05/31 02:50:22;;;;;;;121.37;15.07;;;;;;;4.50;79.09;98950.33;2229239;80;21434;-79
2022/05/31 02:53:23;;;;;;;10.27;6.60;;;;;;;4.50;79.16;98951.62;2229122;80;20963;-79
2022/05/31 02:56:23;;;;;;;10.83;6.70;;;;;;;4.54;78.86;98947.03;2228798;79;21019;-80
2022/05/31 02:59:24;;;;;;;19.63;6.97;;;;;;;4.57;78.94;98947.14;2228852;80;20931;-81
2022/05/31 03:02:24;;;;;;;10.30;6.77;;;;;;;4.59;78.80;98945.91;2229020;80;20964;-79
2022/05/31 03:05:24;;;;;;;277.30;18.13;;;;;;;4.60;78.81;98955.42;2229278;80;20948;-79
2022/05/31 03:08:25;;;;;;;11.20;6.27;;;;;;;4.61;78.81;98950.72;2229243;80;20940;-80
2022/05/31 03:11:25;;;;;;;7.97;6.13;;;;;;;4.64;78.78;98950.42;2229220;80;20892;-78
2022/05/31 03:14:26;;;;;;;37.63;7.83;;;;;;;4.65;78.77;98953.48;2228876;80;20928;-79
2022/05/31 03:17:27;;;;;;;8.50;6.30;;;;;;;4.70;78.73;98957.11;2228685;80;20987;-78
2022/05/31 03:20:26;;;;;;;7.13;5.83;;;;;;;4.76;78.73;98965.09;2228870;80;20959;-78
2022/05/31 03:23:27;;;;;;;7.20;6.50;;;;;;;4.78;78.51;98962.56;2228967;80;21292;-77
2022/05/31 03:26:27;;;;;;;12.10;6.40;;;;;;;4.81;78.54;98969.14;2228563;80;21046;-78
2022/05/31 03:29:28;;;;;;;7.83;6.93;;;;;;;4.85;78.66;98960.66;2228756;80;21006;-78
2022/05/31 03:32:28;;;;;;;11.27;6.10;;;;;;;4.91;78.80;98959.59;2226156;80;21401;-79
2022/05/31 03:35:28;;;;;;;7.00;6.23;;;;;;;4.97;78.67;98960.23;2269068;77;20997;-78
2022/05/31 03:38:29;;;;;;;8.70;6.40;;;;;;;5.02;78.56;98962.56;2289402;77;20922;-77
2022/05/31 03:41:29;;;;;;;132.97;11.17;;;;;;;5.29;78.90;98965.27;2288684;78;21412;-77
2022/05/31 03:44:30;;;;;;;8.80;6.80;;;;;;;5.30;78.43;98957.97;2287527;77;21270;-78
2022/05/31 03:47:30;;;;;;;11.47;6.63;;;;;;;5.62;79.25;98964.22;2286189;77;21254;-77
2022/05/31 03:50:30;;;;;;;16.47;6.33;;;;;;;5.62;78.41;98966.41;2287065;77;21016;-78
2022/05/31 03:53:31;;;;;;;7.77;6.37;;;;;;;5.60;78.59;98964.17;2287044;77;22016;-78
2022/05/31 03:56:34;;;;;;;9.37;6.37;;;;;;;5.62;78.81;98962.52;2286836;77;22030;-78
2022/05/31 03:59:35;;;;;;;6.87;5.83;;;;;;;5.71;79.14;98968.41;2287368;77;21206;-78
2022/05/31 04:02:35;;;;;;;6.93;6.00;;;;;;;5.80;79.02;98976.90;2288796;77;20988;-77
2022/05/31 04:05:35;;;;;;;8.63;5.83;;;;;;;5.97;79.18;98976.64;2287660;77;21329;-76
2022/05/31 04:08:36;;;;;;;8.27;5.93;;;;;;;6.18;78.93;98975.18;2288380;77;21033;-78
2022/05/31 04:11:36;;;;;;;8.07;6.07;;;;;;;6.43;79.24;98969.45;2289498;77;21320;-78
2022/05/31 04:14:36;;;;;;;7.20;5.77;;;;;;;6.67;79.30;98969.75;2290247;77;20937;-78
2022/05/31 04:17:37;;;;;;;6.73;5.70;;;;;;;6.90;78.97;98976.02;2290643;77;20948;-78
2022/05/31 04:20:37;;;;;;;191.33;16.37;;;;;;;7.18;79.08;98981.59;2290136;78;20949;-80
2022/05/31 04:26:56;;;;;;;6.93;5.80;;;;;;;7.82;79.34;98984.17;2289456;77;21009;-78
2022/05/31 04:29:57;;;;;;;49.83;8.77;;;;;;;8.09;78.64;98980.48;2289708;77;21035;-79
2022/05/31 04:32:57;;;;;;;10.47;5.40;;;;;;;8.31;78.42;98985.34;2287602;78;21467;-79
2022/05/31 04:35:58;;;;;;;7.07;5.27;;;;;;;8.51;78.31;98985.83;2283319;77;20978;-80
2022/05/31 04:38:58;;;;;;;9.63;5.90;;;;;;;8.77;78.25;98983.39;2281811;78;20985;-79
2022/05/31 04:41:58;;;;;;;12.10;6.10;;;;;;;8.98;77.58;98984.69;2281958;78;21061;-81
2022/05/31 04:44:59;;;;;;;53.97;7.20;;;;;;;9.18;77.58;98982.92;2282031;77;20949;-79
2022/05/31 04:48:02;;;;;;;18.50;5.47;;;;;;;9.39;77.46;98984.19;2280272;77;21009;-78
2022/05/31 04:51:02;;;;;;;124.07;10.43;;;;;;;9.69;77.58;98990.41;2280508;78;21377;-78
2022/05/31 04:54:03;;;;;;;369.53;19.70;;;;;;;9.97;77.59;98989.15;2280048;78;20997;-79
2022/05/31 04:57:04;;;;;;;8.97;6.03;;;;;;;10.28;77.76;98995.76;2279564;78;21024;-82
2022/05/31 05:00:04;;;;;;;7.07;6.27;;;;;;;10.62;78.44;98991.95;2281318;78;21329;-83
2022/05/31 05:03:04;;;;;;;14.53;6.30;;;;;;;10.94;78.19;98994.98;2282113;77;20922;-81
2022/05/31 05:06:04;;;;;;;103.97;15.23;;;;;;;11.17;78.16;98983.95;2282788;77;21005;-82
2022/05/31 05:09:06;;;;;;;40.60;10.50;;;;;;;11.49;78.15;98986.95;2282897;78;21405;-83
2022/05/31 05:12:05;;;;;;;15.83;10.83;;;;;;;11.76;76.99;98985.47;2283096;78;20988;-83
2022/05/31 05:15:06;;;;;;;19.15;9.90;;;;;;;12.00;76.65;98981.79;2281509;78;21037;-82
2022/05/31 05:18:06;;;;;;;16.87;11.43;;;;;;;12.22;75.90;98988.10;2282088;77;20946;-83
2022/05/31 05:21:06;;;;;;;16.00;11.63;;;;;;;12.37;75.07;98979.05;2281781;78;21006;-82
2022/05/31 05:24:07;;;;;;;23.62;14.45;;;;;;;12.58;74.78;98982.23;2281628;78;21330;-84
2022/05/31 05:27:07;;;;;;;22.40;12.68;;;;;;;12.94;74.63;98987.22;2282304;77;21013;-81
2022/05/31 05:33:27;;;;;;;19.75;11.83;;;;;;;13.71;72.63;98986.66;2281962;78;20996;-83
2022/05/31 05:36:27;;;;;;;101.15;16.27;;;;;;;13.93;71.50;98988.90;2281748;78;21002;-80
2022/05/31 05:39:28;;;;;;;17.70;12.13;;;;;;;14.21;71.01;98991.09;2281381;78;20954;-79
2022/05/31 05:42:28;;;;;;;46.92;26.45;;;;;;;14.50;69.98;98988.02;2281718;78;20961;-79
2022/05/31 05:45:28;;;;;;;25.02;14.55;;;;;;;14.59;69.61;98986.69;2281292;78;21025;-80
2022/05/31 05:48:29;;;;;;;19.92;12.65;;;;;;;14.72;68.97;98986.66;2282635;78;21005;-83
2022/05/31 05:51:29;;;;;;;12.70;9.65;;;;;;;14.99;68.32;98985.30;2282092;78;21009;-83
2022/05/31 05:54:29;;;;;;;19.15;9.63;;;;;;;15.20;66.88;98982.58;2281066;77;20953;-81
2022/05/31 05:57:30;;;;;;;25.75;13.48;;;;;;;15.41;66.21;98978.97;2281880;78;21554;-82
2022/05/31 06:00:30;;;;;;;32.23;14.70;;;;;;;15.60;65.97;98986.34;2283429;78;20973;-82
2022/05/31 06:03:31;;;;;;;33.75;12.55;;;;;;;15.59;65.50;98978.89;2282010;78;21071;-83
2022/05/31 06:06:32;;;;;;;21.42;11.15;;;;;;;15.74;65.02;98980.59;2281278;78;21027;-82
2022/05/31 06:09:32;;;;;;;26.07;12.45;;;;;;;15.99;64.09;98980.41;2281420;78;21458;-82
2022/05/31 06:12:33;;;;;;;22.17;13.70;;;;;;;16.11;62.65;98983.81;2281674;78;20988;-83
2022/05/31 06:15:33;;;;;;;24.15;13.85;;;;;;;16.27;63.05;98982.38;2282100;78;21017;-83
2022/05/31 06:18:33;;;;;;;37.50;13.13;;;;;;;16.29;62.33;98982.78;2282457;78;21325;-83
2022/05/31 06:21:34;;;;;;;29.10;12.95;;;;;;;16.28;61.40;98985.44;2282814;78;20985;-84
2022/05/31 06:24:34;;;;;;;31.23;10.63;;;;;;;16.44;61.11;98985.73;2282338;78;20961;-84
2022/05/31 06:27:35;;;;;;;17.45;11.08;;;;;;;16.61;60.23;98982.52;2282645;77;21603;-84
2022/05/31 06:30:38;;;;;;;15.48;8.88;;;;;;;16.82;60.78;98984.08;2282696;78;21043;-84
2022/05/31 06:33:38;;;;;;;20.62;8.08;;;;;;;17.07;59.45;98983.35;2281964;78;20945;-83
2022/05/31 06:36:42;;;;;;;17.82;7.55;;;;;;;17.19;57.84;98981.88;2299830;77;20969;-84
2022/05/31 06:39:43;;;;;;;19.00;7.45;;;;;;;17.38;57.96;98979.91;2304041;77;21276;-83
2022/05/31 06:42:43;;;;;;;279.32;27.70;;;;;;;17.64;57.07;98983.51;2304403;77;21333;-77
2022/05/31 06:45:43;;;;;;;13.85;7.50;;;;;;;17.83;56.48;98983.25;2303207;77;21305;-77
2022/05/31 06:48:44;;;;;;;12.53;6.20;;;;;;;17.92;55.31;98982.68;2299924;77;21075;-78
2022/05/31 06:58:22;;;;;;;8.83;6.50;;;;;;;18.36;54.12;98984.17;2302613;77;21010;-84
2022/05/31 07:01:30;;;;;;;7.85;6.42;;;;;;;18.38;54.13;98985.47;2302079;77;21380;-81
2022/05/31 07:04:23;;;;;;;8.20;5.65;;;;;;;18.41;54.43;98980.13;2303121;77;21492;-80
2022/05/31 07:07:23;;;;;;;7.85;5.78;;;;;;;18.49;54.20;98983.97;2302468;77;21443;-85
2022/05/31 07:10:24;;;;;;;52.65;6.62;;;;;;;18.70;53.29;98979.64;2301910;77;20965;-84
2022/05/31 07:13:24;;;;;;;13.25;3.92;;;;;;;18.90;52.85;98982.77;2302759;77;20976;-83
2022/05/31 07:16:24;;;;;;;18.32;4.75;;;;;;;19.13;51.54;98976.19;2302454;77;20957;-84
2022/05/31 07:19:25;;;;;;;28.92;4.47;;;;;;;19.37;51.03;98978.31;2302631;77;20994;-84
2022/05/31 07:22:25;;;;;;;4.47;3.50;;;;;;;19.54;49.49;98984.60;2302543;77;21340;-83
2022/05/31 07:25:26;;;;;;;9.43;4.10;;;;;;;19.55;48.84;98984.56;2302478;77;20980;-83
2022/05/31 07:28:28;;;;;;;6.42;4.42;;;;;;;19.72;49.29;98984.19;2303395;77;21008;-84
2022/05/31 07:31:26;;;;;;;8.13;4.70;;;;;;;19.82;48.60;98987.50;2303030;77;20917;-84
2022/05/31 07:34:27;;;;;;;58.98;6.53;;;;;;;19.99;47.17;98988.00;2301996;77;20976;-84
2022/05/31 07:37:27;;;;;;;3.83;2.67;;;;;;;19.92;47.72;98993.00;2288106;77;20965;-83
2022/05/31 07:40:28;;;;;;;6.12;3.47;;;;;;;20.15;46.94;98998.65;2288646;77;21464;-84
2022/05/31 07:43:28;;;;;;;5.25;3.95;;;;;;;20.33;46.48;98983.62;2288520;77;20961;-83
2022/05/31 07:46:29;;;;;;;3.98;3.27;;;;;;;20.43;47.22;98993.56;2289214;77;21000;-84
2022/05/31 07:49:29;;;;;;;7.53;4.40;;;;;;;20.27;47.21;98984.23;2289840;77;21123;-83
2022/05/31 07:52:29;;;;;;;6.47;4.65;;;;;;;20.22;47.96;98990.09;2289845;77;20906;-83
2022/05/31 07:55:30;;;;;;;5.12;3.90;;;;;;;20.29;48.10;98992.55;2289450;77;21036;-83
2022/05/31 07:58:33;;;;;;;13.67;8.60;;;;;;;20.41;47.71;98992.73;2289038;77;21452;-85
2022/05/31 08:01:33;;;;;;;5.45;4.12;;;;;;;20.69;47.62;98992.88;2288898;77;21231;-83
2022/05/31 08:04:33;;;;;;;36.60;6.70;;;;;;;20.92;46.08;98990.97;2289046;77;21000;-82
2022/05/31 08:07:34;;;;;;;5.55;3.52;;;;;;;21.09;46.35;98991.36;2289202;77;21031;-84
2022/05/31 08:10:34;;;;;;;5.97;3.62;;;;;;;21.29;45.66;98994.81;2289381;77;21430;-83
2022/05/31 08:13:35;;;;;;;3.52;2.95;;;;;;;21.33;45.20;98987.63;2289163;77;20986;-84
2022/05/31 08:16:36;;;;;;;11.80;3.22;;;;;;;21.49;44.03;98988.45;2265758;78;21905;-81
2022/05/31 08:19:36;;;;;;;6.97;2.92;;;;;;;21.35;43.08;98989.32;2289717;77;21005;-84
2022/05/31 08:22:37;;;;;;;4.15;2.90;;;;;;;21.44;42.72;98988.17;2288925;77;20981;-85
2022/05/31 08:25:38;;;;;;;3.40;2.55;;;;;;;21.65;41.56;98986.66;2288768;77;21428;-84
2022/05/31 08:28:38;;;;;;;3.72;2.35;;;;;;;21.80;41.79;98983.10;2287887;77;21305;-85
2022/05/31 08:31:38;;;;;;;6.37;3.10;;;;;;;22.00;41.78;98985.13;2288043;77;20989;-84
2022/05/31 08:34:38;;;;;;;4.05;2.98;;;;;;;22.22;42.04;98984.00;2288479;77;20977;-83
2022/05/31 08:37:39;;;;;;;9.25;3.95;;;;;;;22.37;40.76;98985.28;2301269;77;21064;-83
2022/05/31 08:40:39;;;;;;;3.80;3.20;;;;;;;22.48;40.88;98991.11;2303041;77;20945;-84
2022/05/31 08:43:40;;;;;;;20.60;3.60;;;;;;;22.61;39.93;98984.48;2302743;77;20960;-83
2022/05/31 08:46:40;;;;;;;3.87;3.20;;;;;;;22.54;40.89;98982.91;2303554;77;20953;-85
2022/05/31 08:52:59;;;;;;;4.30;3.90;;;;;;;22.61;39.76;98979.16;2302183;77;20961;-83
2022/05/31 08:59:19;;;;;;;7.78;2.98;;;;;;;22.88;38.60;98975.55;2302094;77;20973;-85
2022/05/31 09:02:19;;;;;;;8.58;3.50;;;;;;;23.02;38.11;98971.52;2302764;77;21013;-84
2022/05/31 09:05:19;;;;;;;9.00;2.98;;;;;;;23.14;37.98;98971.94;2302899;77;20989;-84
2022/05/31 09:08:20;;;;;;;2.70;2.40;;;;;;;23.41;37.19;98978.06;2303616;77;20976;-83
2022/05/31 09:11:20;;;;;;;16.75;4.28;;;;;;;23.56;36.75;98963.31;2304502;77;20977;-86
2022/05/31 09:14:20;;;;;;;6.35;3.83;;;;;;;23.28;37.17;98969.22;2303514;77;21321;-85
2022/05/31 09:17:21;;;;;;;3.20;2.40;;;;;;;23.43;36.94;98973.55;2302325;77;21013;-83
2022/05/31 09:20:21;;;;;;;15.85;3.20;;;;;;;23.74;36.71;98963.92;2302813;77;20929;-84
2022/05/31 09:23:22;;;;;;;3.40;2.52;;;;;;;23.90;35.84;98970.84;2302345;77;20945;-83
2022/05/31 09:26:22;;;;;;;2.30;2.10;;;;;;;24.15;35.92;98968.05;2302158;77;20977;-84
2022/05/31 09:29:23;;;;;;;4.50;3.05;;;;;;;24.34;34.99;98968.22;2301975;77;21076;-84
2022/05/31 09:32:23;;;;;;;7.37;4.00;;;;;;;23.98;35.21;98968.73;2302421;77;20949;-84
2022/05/31 09:35:23;;;;;;;20.62;4.42;;;;;;;23.41;35.90;98968.73;2302744;77;20965;-84
2022/05/31 09:38:24;;;;;;;10.30;7.75;;;;;;;23.12;36.11;98963.61;2303074;77;21388;-83
2022/05/31 09:41:24;;;;;;;2.58;2.37;;;;;;;22.83;36.31;98962.88;2302575;77;20976;-83
2022/05/31 09:44:30;;;;;;;20.68;3.77;;;;;;;22.57;35.80;98961.56;2302930;77;21389;-85
2022/05/31 09:47:30;;;;;;;4.47;3.02;;;;;;;22.04;37.87;98957.56;2303012;77;20979;-83
2022/05/31 09:50:31;;;;;;;2.50;2.30;;;;;;;21.61;38.02;98961.98;2302652;77;21007;-82
2022/05/31 09:57:09;;;;;;;8.78;6.15;;;;;;;20.94;39.88;98967.45;2303626;77;21396;-83
2022/05/31 10:00:08;;;;;;;3.80;3.08;;;;;;;20.82;40.05;98968.26;2301970;77;21682;-83
2022/05/31 10:03:09;;;;;;;3.90;2.15;;;;;;;20.96;39.48;98959.45;2303095;77;20909;-83
2022/05/31 10:06:09;;;;;;;7.75;2.83;;;;;;;20.92;39.23;98962.65;2303493;77;21000;-84
2022/05/31 10:09:09;;;;;;;8.38;3.00;;;;;;;20.73;38.86;98962.71;2303906;77;21024;-86
2022/05/31 10:12:10;;;;;;;3.58;2.75;;;;;;;20.51;39.28;98953.14;2302821;77;21016;-85
2022/05/31 10:15:10;;;;;;;3.05;2.40;;;;;;;20.30;39.61;98958.52;2302063;77;20929;-84
2022/05/31 10:18:20;;;;;;;4.08;2.40;;;;;;;20.38;39.63;98952.14;2301725;77;21070;-83
2022/05/31 10:21:20;;;;;;;5.72;3.02;;;;;;;20.90;38.93;98944.58;2302190;77;20940;-83
2022/05/31 10:24:21;;;;;;;3.22;2.70;;;;;;;21.35;38.11;98934.89;2302283;77;20952;-82
2022/05/31 10:27:21;;;;;;;5.08;2.37;;;;;;;21.77;38.47;98940.69;2302825;77;21387;-81
2022/05/31 10:30:22;;;;;;;14.95;2.77;;;;;;;22.06;37.76;98942.89;2303356;77;21035;-80
2022/05/31 10:33:22;;;;;;;7.58;2.42;;;;;;;22.40;37.14;98942.16;2301678;77;20941;-83
2022/05/31 10:36:22;;;;;;;3.05;2.35;;;;;;;22.90;36.43;98937.37;2294424;77;20989;-84
2022/05/31 10:39:23;;;;;;;2.72;2.15;;;;;;;23.08;35.87;98929.57;2281303;78;21365;-83
2022/05/31 10:42:23;;;;;;;4.37;2.00;;;;;;;23.31;35.03;98926.03;2282683;77;20922;-82
2022/05/31 10:45:23;;;;;;;2.12;1.70;;;;;;;23.35;35.38;98926.32;2282166;77;20985;-83
2022/05/31 10:48:24;;;;;;;2.75;1.90;;;;;;;23.37;33.87;98931.12;2282079;78;21261;-83
2022/05/31 10:51:24;;;;;;;13.60;2.83;;;;;;;23.27;32.43;98924.41;2282155;77;21294;-83
2022/05/31 10:54:25;;;;;;;2.62;2.15;;;;;;;23.53;33.03;98927.89;2282168;77;20970;-82
2022/05/31 10:57:25;;;;;;;6.83;2.42;;;;;;;23.87;32.38;98920.32;2281068;77;20938;-84
2022/05/31 11:00:25;;;;;;;5.35;1.80;;;;;;;24.03;31.37;98917.89;2281104;78;21001;-83
2022/05/31 11:03:26;;;;;;;2.60;1.57;;;;;;;23.68;31.12;98922.86;2281981;78;21329;-82
2022/05/31 11:06:26;;;;;;;7.62;2.10;;;;;;;23.18;32.40;98924.30;2281853;77;20886;-82
2022/05/31 11:12:46;;;;;;;2.42;1.50;;;;;;;23.32;31.40;98913.13;2281737;78;21017;-84
2022/05/31 11:15:46;;;;;;;5.45;1.72;;;;;;;23.06;32.03;98919.91;2280826;78;21005;-84
2022/05/31 11:18:46;;;;;;;6.12;1.80;;;;;;;22.96;32.01;98909.19;2280477;77;20977;-84
2022/05/31 11:21:47;;;;;;;5.97;1.90;;;;;;;23.19;31.93;98906.07;2282533;78;21106;-82
2022/05/31 11:24:51;;;;;;;8.90;2.20;;;;;;;23.28;31.98;98914.17;2282297;77;21021;-82
2022/05/31 11:27:49;;;;;;;9.03;4.58;;;;;;;23.27;31.55;98908.90;2248753;78;20946;-84
2022/05/31 11:30:50;;;;;;;12.58;3.08;;;;;;;23.28;32.39;98910.17;2280965;78;20953;-83
2022/05/31 11:33:50;;;;;;;2.65;2.05;;;;;;;23.56;32.39;98910.49;2281108;77;21306;-84
2022/05/31 11:36:51;;;;;;;2.90;1.85;;;;;;;24.30;31.43;98902.59;2280809;77;21365;-81
2022/05/31 11:39:52;;;;;;;6.28;2.02;;;;;;;24.61;30.94;98899.45;2280194;77;21005;-82
2022/05/31 11:42:51;;;;;;;8.65;2.55;;;;;;;24.43;31.19;98893.98;2280940;78;20965;-82
2022/05/31 11:45:52;;;;;;;5.62;2.08;;;;;;;24.08;30.98;98896.77;2282493;77;20946;-80
2022/05/31 11:48:52;;;;;;;4.37;2.08;;;;;;;24.34;30.15;98894.39;2283133;78;21048;-81
2022/05/31 11:51:53;;;;;;;4.30;2.08;;;;;;;24.67;30.71;98894.71;2282427;78;20945;-82
2022/05/31 11:58:15;;;;;;;3.33;1.92;;;;;;;25.30;30.21;98890.09;2281891;78;21000;-84
2022/05/31 12:01:15;;;;;;;3.17;2.00;;;;;;;25.30;30.22;98891.89;2281825;78;20981;-82
2022/05/31 12:04:17;;;;;;;3.20;1.72;;;;;;;25.33;29.98;98894.42;2281520;77;20986;-83
2022/05/31 12:07:16;;;;;;;4.37;2.00;;;;;;;25.62;29.47;98889.02;2281356;78;20949;-83
2022/05/31 12:10:17;;;;;;;10.88;2.30;;;;;;;25.66;27.79;98882.14;2280824;78;21012;-83
2022/05/31 12:13:17;;;;;;;2.67;2.05;;;;;;;25.47;28.72;98891.09;2280980;77;20970;-83
2022/05/31 12:16:17;;;;;;;2.10;1.87;;;;;;;25.79;28.23;98886.42;2280721;78;20968;-81
2022/05/31 12:19:18;;;;;;;5.33;2.30;;;;;;;25.85;28.04;98875.89;2280847;78;21012;-78
2022/05/31 12:22:18;;;;;;;6.80;2.10;;;;;;;25.85;28.04;98875.89;2277581;77;21853;-78
2022/05/31 12:25:19;;;;;;;5.72;2.00;;;;;;;25.88;27.54;98879.75;2278487;77;20933;-81
2022/05/31 12:28:19;;;;;;;8.58;2.50;;;;;;;25.89;27.97;98865.44;2280051;78;20930;-78
2022/05/31 12:31:19;;;;;;;6.12;2.45;;;;;;;26.16;27.96;98858.72;2280520;77;22039;-81
2022/05/31 12:34:20;;;;;;;6.70;2.62;;;;;;;26.43;27.66;98855.59;2280745;78;20958;-80
2022/05/31 12:37:20;;;;;;;19.45;17.45;;;;;;;26.38;27.29;98857.17;2291642;77;21020;-81
2022/05/31 12:40:21;;;;;;;34.53;4.45;;;;;;;26.26;27.10;98850.62;2301885;77;20936;-81
2022/05/31 12:43:21;;;;;;;2.30;2.10;;;;;;;26.04;27.24;98847.31;2302232;77;20953;-79
2022/05/31 12:46:21;;;;;;;5.60;1.92;;;;;;;26.21;27.33;98842.44;2301707;77;21383;-81
2022/05/31 12:49:22;;;;;;;3.15;1.90;;;;;;;26.49;27.47;98840.55;2301480;77;21416;-80
2022/05/31 12:55:26;;;;;;;2.12;1.70;;;;;;;26.66;26.79;98834.69;2302701;77;20967;-80
2022/05/31 12:58:26;;;;;;;3.40;1.90;;;;;;;26.74;26.62;98821.36;2303557;77;20945;-82
2022/05/31 13:01:27;;;;;;;52.70;5.40;;;;;;;26.23;26.02;98828.50;2304019;77;21438;-79
2022/05/31 13:04:28;;;;;;;2.37;1.80;;;;;;;25.52;27.01;98825.80;2303589;77;21052;-82
2022/05/31 13:07:27;;;;;;;3.62;1.98;;;;;;;24.90;27.50;98828.73;2304732;77;21266;-83
2022/05/31 13:10:28;;;;;;;3.12;1.55;;;;;;;24.37;28.68;98821.36;2303476;77;21403;-81
2022/05/31 13:20:09;;;;;;;3.52;2.00;;;;;;;24.61;28.95;98800.24;2304285;77;20913;-81
2022/05/31 13:23:06;;;;;;;1.90;1.80;;;;;;;24.29;29.04;98804.83;2303629;77;21305;-81
2022/05/31 13:26:07;;;;;;;3.02;1.95;;;;;;;24.07;29.64;98804.37;2303677;77;21003;-84
2022/05/31 13:29:07;;;;;;;4.75;1.80;;;;;;;24.14;29.75;98800.50;2304139;77;21443;-78
2022/05/31 13:32:07;;;;;;;3.10;2.05;;;;;;;24.16;30.58;98797.77;2303165;77;21307;-82
2022/05/31 13:35:08;;;;;;;2.10;2.00;;;;;;;24.32;29.75;98793.56;2304452;77;21028;-83
2022/05/31 13:38:08;;;;;;;2.95;2.17;;;;;;;24.23;30.35;98789.90;2303382;77;21064;-82
2022/05/31 13:41:09;;;;;;;2.10;1.95;;;;;;;24.18;30.27;98791.91;2302319;77;20985;-82
2022/05/31 13:44:09;;;;;;;7.03;2.52;;;;;;;24.50;29.49;98790.53;2302687;77;20969;-82
2022/05/31 13:47:11;;;;;;;114.37;93.47;;;;;;;24.75;29.13;98789.80;2302965;77;21960;-82
2022/05/31 13:50:10;;;;;;;7.75;5.62;;;;;;;25.07;28.97;98783.44;2302817;77;21028;-82
2022/05/31 13:53:10;;;;;;;3.47;3.05;;;;;;;25.12;27.39;98771.20;2302589;77;21032;-81
2022/05/31 13:56:11;;;;;;;8.63;2.45;;;;;;;24.91;28.10;98777.94;2302610;77;20957;-82
2022/05/31 13:59:11;;;;;;;5.12;2.15;;;;;;;24.58;28.91;98777.70;2304298;77;21044;-83
2022/05/31 14:02:11;;;;;;;6.10;2.50;;;;;;;24.39;29.31;98770.14;2304003;77;21052;-83
2022/05/31 14:05:12;;;;;;;3.05;1.98;;;;;;;24.37;29.13;98778.68;2304825;77;20996;-82
2022/05/31 14:08:12;;;;;;;2.17;1.95;;;;;;;24.37;29.90;98770.67;2305625;77;20957;-82
2022/05/31 14:11:13;;;;;;;3.25;2.17;;;;;;;23.91;29.59;98766.45;2304748;77;21602;-80
2022/05/31 14:14:13;;;;;;;2.15;1.98;;;;;;;23.63;29.98;98770.77;2303898;77;20961;-82
2022/05/31 14:17:13;;;;;;;2.27;2.08;;;;;;;23.43;30.82;98768.43;2304765;77;21039;-82
2022/05/31 14:20:14;;;;;;;2.30;2.10;;;;;;;23.49;30.87;98763.31;2304242;77;20958;-80
2022/05/31 14:23:14;;;;;;;4.83;2.33;;;;;;;23.51;31.03;98757.45;2306073;77;21037;-81
2022/05/31 14:26:15;;;;;;;2.20;2.00;;;;;;;23.84;31.22;98760.52;2306113;77;20960;-81
2022/05/31 14:29:15;;;;;;;23.50;4.97;;;;;;;24.11;30.62;98748.64;2306026;77;21384;-79
2022/05/31 14:32:17;;;;;;;5.20;2.52;;;;;;;24.36;30.36;98744.94;2305282;77;20956;-82
2022/05/31 14:35:16;;;;;;;2.62;2.42;;;;;;;24.60;29.77;98740.27;2305101;77;21387;-80
2022/05/31 14:38:16;;;;;;;3.10;2.25;;;;;;;24.54;29.82;98736.09;2296317;77;20986;-80
2022/05/31 14:41:17;;;;;;;31.52;3.27;;;;;;;24.60;29.89;98734.47;2291780;77;20941;-81
2022/05/31 14:44:17;;;;;;;2.30;2.10;;;;;;;24.78;30.29;98730.06;2291503;77;20918;-81
2022/05/31 14:47:17;;;;;;;2.40;2.10;;;;;;;24.66;29.33;98736.84;2290226;77;21017;-83